createdAt,value
2022-12-19T00:01:43.470Z,65.25
2022-12-19T00:04:15.443Z,81.43
2022-12-19T00:06:44.112Z,80.97
2022-12-19T00:09:13.093Z,65.88
2022-12-19T00:11:40.734Z,59.05
2022-12-19T00:14:11.477Z,70.70
2022-12-19T00:16:38.368Z,71.68
2022-12-19T00:19:05.439Z,54.10
2022-12-19T00:21:35.433Z,52.00
2022-12-19T00:24:18.416Z,60.20
2022-12-19T00:26:50.229Z,65.07
2022-12-19T00:29:20.574Z,85.05
2022-12-19T00:31:47.480Z,80.85
2022-12-19T00:34:15.139Z,83.55
2022-12-19T00:36:42.412Z,64.15
2022-12-19T00:39:10.521Z,61.85
2022-12-19T00:41:42.087Z,75.50
2022-12-19T00:44:13.853Z,83.65
2022-12-19T00:46:40.953Z,62.90
2022-12-19T00:49:07.791Z,78.63
2022-12-19T00:51:37.555Z,87.00
2022-12-19T00:54:08.048Z,63.97
2022-12-19T00:56:38.220Z,77.68
2022-12-19T00:59:07.000Z,85.15
2022-12-19T01:01:37.730Z,79.10
2022-12-19T01:06:59.767Z,80.95
2022-12-19T01:09:34.395Z,78.63
2022-12-19T01:12:21.032Z,72.20
2022-12-19T01:15:03.758Z,86.32
2022-12-19T01:17:30.982Z,61.90
2022-12-19T01:19:57.724Z,74.18
2022-12-19T01:22:24.469Z,84.93
2022-12-19T01:24:51.188Z,75.70
2022-12-19T01:27:17.876Z,68.35
2022-12-19T01:29:52.831Z,83.72
2022-12-19T01:32:21.773Z,64.75
2022-12-19T01:34:48.629Z,71.63
2022-12-19T01:37:19.871Z,53.88
2022-12-19T01:39:47.015Z,61.63
2022-12-19T01:42:23.542Z,55.35
2022-12-19T01:45:02.918Z,53.75
2022-12-19T01:47:33.113Z,76.45
2022-12-19T01:50:03.562Z,71.38
2022-12-19T01:52:31.267Z,70.78
2022-12-19T01:54:58.577Z,58.15
2022-12-19T01:57:25.616Z,60.55
2022-12-19T02:00:00.271Z,59.08
2022-12-19T02:02:33.544Z,72.57
2022-12-19T02:05:03.330Z,56.42
2022-12-19T02:07:32.743Z,44.05
2022-12-19T02:10:00.082Z,73.60
2022-12-19T02:12:40.133Z,63.97
2022-12-19T02:15:10.674Z,60.05
2022-12-19T02:17:38.123Z,66.88
2022-12-19T02:20:27.669Z,51.70
2022-12-19T02:23:30.718Z,59.75
2022-12-19T02:26:16.246Z,65.25
2022-12-19T02:29:15.544Z,64.15
2022-12-19T02:32:02.263Z,64.65
2022-12-19T02:34:44.652Z,64.75
2022-12-19T02:37:33.770Z,77.30
2022-12-19T02:40:16.541Z,74.07
2022-12-19T02:42:50.623Z,74.78
2022-12-19T02:45:28.500Z,71.68
2022-12-19T02:48:03.333Z,64.32
2022-12-19T02:50:42.815Z,62.33
2022-12-19T02:53:14.065Z,50.70
2022-12-19T02:56:40.141Z,81.93
2022-12-19T02:59:58.353Z,68.03
2022-12-19T03:02:53.162Z,72.15
2022-12-19T03:06:18.349Z,70.22
2022-12-19T03:09:00.258Z,60.47
2022-12-19T03:11:35.777Z,74.70
2022-12-19T03:14:09.896Z,54.78
2022-12-19T03:16:38.146Z,70.38
2022-12-19T03:19:11.779Z,62.75
2022-12-19T03:22:02.170Z,69.43
2022-12-19T03:24:29.245Z,60.60
2022-12-19T03:27:21.110Z,72.28
2022-12-19T03:30:00.581Z,60.10
2022-12-19T03:32:31.504Z,78.78
2022-12-19T03:35:29.104Z,69.25
2022-12-19T03:38:02.317Z,83.38
2022-12-19T03:40:30.179Z,79.20
2022-12-19T03:43:12.661Z,77.85
2022-12-19T03:45:43.711Z,60.30
2022-12-19T03:48:43.578Z,57.50
2022-12-19T03:51:19.018Z,58.95
2022-12-19T03:53:57.015Z,63.60
2022-12-19T03:56:42.365Z,51.80
2022-12-19T03:59:34.136Z,66.28
2022-12-19T04:02:04.414Z,49.72
2022-12-19T04:04:37.950Z,53.17
2022-12-19T04:07:07.775Z,69.15
2022-12-19T04:09:38.268Z,78.38
2022-12-19T04:12:14.544Z,65.30
2022-12-19T04:14:42.222Z,66.63
2022-12-19T04:17:46.545Z,56.78
2022-12-19T04:20:20.836Z,61.40
2022-12-19T04:23:01.435Z,61.50
2022-12-19T04:25:36.668Z,76.85
2022-12-19T04:28:15.768Z,73.22
2022-12-19T04:30:45.125Z,59.25
2022-12-19T04:33:12.049Z,71.53
2022-12-19T04:35:39.048Z,57.40
2022-12-19T04:38:06.641Z,52.72
2022-12-19T04:40:40.886Z,75.88
2022-12-19T04:43:09.390Z,65.60
2022-12-19T04:45:36.731Z,60.40
2022-12-19T04:48:04.144Z,39.22
2022-12-19T04:50:33.724Z,63.50
2022-12-19T04:53:01.202Z,64.22
2022-12-19T04:55:28.052Z,44.60
2022-12-19T04:57:54.807Z,67.43
2022-12-19T05:00:21.826Z,67.38
2022-12-19T05:02:48.725Z,61.08
2022-12-19T05:05:16.560Z,45.13
2022-12-19T05:07:43.294Z,56.72
2022-12-19T05:10:10.229Z,46.05
2022-12-19T05:12:37.352Z,37.40
2022-12-19T05:15:05.823Z,52.33
2022-12-19T05:17:32.558Z,28.27
2022-12-19T05:19:59.317Z,32.03
2022-12-19T05:22:26.116Z,46.55
2022-12-19T05:24:52.871Z,24.75
2022-12-19T05:27:19.659Z,22.65
2022-12-19T05:29:46.477Z,48.30
2022-12-19T05:32:13.244Z,24.92
2022-12-19T05:34:39.970Z,25.02
2022-12-19T05:37:06.673Z,33.08
2022-12-19T05:39:33.618Z,20.98
2022-12-19T05:42:00.597Z,24.65
2022-12-19T05:44:27.390Z,28.98
2022-12-19T05:46:54.345Z,29.02
2022-12-19T05:49:21.137Z,25.10
2022-12-19T05:51:48.434Z,21.65
2022-12-19T05:54:15.155Z,16.55
2022-12-19T05:56:41.856Z,21.10
2022-12-19T05:59:08.625Z,20.40
2022-12-19T06:01:35.507Z,23.02
2022-12-19T06:04:02.343Z,25.08
2022-12-19T06:06:29.099Z,21.05
2022-12-19T06:08:58.595Z,20.95
2022-12-19T06:11:26.831Z,21.52
2022-12-19T06:13:53.984Z,18.15
2022-12-19T06:16:23.203Z,18.77
2022-12-19T06:18:50.517Z,17.67
2022-12-19T06:21:21.784Z,15.68
2022-12-19T06:23:49.495Z,17.83
2022-12-19T06:26:20.513Z,19.00
2022-12-19T06:28:55.629Z,14.25
2022-12-19T06:31:25.017Z,16.15
2022-12-19T06:33:52.424Z,14.48
2022-12-19T06:36:29.207Z,16.40
2022-12-19T06:38:59.086Z,12.02
2022-12-19T06:41:45.863Z,15.63
2022-12-19T06:44:17.216Z,14.95
2022-12-19T06:46:44.583Z,15.18
2022-12-19T06:49:12.119Z,9.48
2022-12-19T06:51:39.257Z,14.38
2022-12-19T06:54:06.462Z,13.63
2022-12-19T06:56:37.943Z,14.85
2022-12-19T06:59:06.046Z,12.38
2022-12-19T07:01:59.533Z,12.13
2022-12-19T07:04:43.469Z,9.68
2022-12-19T07:07:10.346Z,13.20
2022-12-19T07:09:37.363Z,13.10
2022-12-19T07:12:07.433Z,12.68
2022-12-19T07:14:34.265Z,12.43
2022-12-19T07:17:03.258Z,12.20
2022-12-19T07:19:32.943Z,13.52
2022-12-19T07:22:03.706Z,12.93
2022-12-19T07:24:31.091Z,12.70
2022-12-19T07:26:58.537Z,10.88
2022-12-19T07:29:25.607Z,19.25
2022-12-19T07:31:53.030Z,14.32
2022-12-19T07:34:20.065Z,12.10
2022-12-19T07:36:46.888Z,9.75
2022-12-19T07:39:13.634Z,14.93
2022-12-19T07:41:40.461Z,14.52
2022-12-19T07:44:08.007Z,14.32
2022-12-19T07:46:35.544Z,17.35
2022-12-19T07:49:02.364Z,13.75
2022-12-19T07:51:29.373Z,11.93
2022-12-19T07:53:56.420Z,10.70
2022-12-19T07:56:23.248Z,13.95
2022-12-19T07:58:51.687Z,15.13
2022-12-19T08:01:18.820Z,10.13
2022-12-19T08:03:45.722Z,9.90
2022-12-19T08:06:12.488Z,12.05
2022-12-19T08:08:39.343Z,12.15
2022-12-19T08:11:13.196Z,14.18
2022-12-19T08:13:46.147Z,11.20
2022-12-19T08:16:14.616Z,15.98
2022-12-19T08:18:41.537Z,11.68
2022-12-19T08:21:09.667Z,12.60
2022-12-19T08:23:36.882Z,12.05
2022-12-19T08:26:11.514Z,10.35
2022-12-19T08:28:38.640Z,12.70
2022-12-19T08:31:17.293Z,13.98
2022-12-19T08:36:15.009Z,13.40
2022-12-19T08:38:42.462Z,12.23
2022-12-19T08:41:09.594Z,16.20
2022-12-19T08:43:36.540Z,13.40
2022-12-19T08:46:03.411Z,10.32
2022-12-19T08:48:32.578Z,12.02
2022-12-19T08:51:04.631Z,11.63
2022-12-19T08:53:35.469Z,14.05
2022-12-19T08:56:19.731Z,11.00
2022-12-19T08:58:47.363Z,11.35
2022-12-19T09:01:23.896Z,18.55
2022-12-19T09:04:21.709Z,8.15
2022-12-19T09:06:38.127Z,11.82
2022-12-19T09:09:05.575Z,14.18
2022-12-19T09:11:32.535Z,13.13
2022-12-19T09:13:59.398Z,10.70
2022-12-19T09:16:28.438Z,12.73
2022-12-19T09:18:58.771Z,9.90
2022-12-19T09:21:29.201Z,10.05
2022-12-19T09:24:07.086Z,10.10
2022-12-19T09:26:35.705Z,9.40
2022-12-19T09:29:03.696Z,9.75
2022-12-19T09:31:37.503Z,14.18
2022-12-19T09:34:04.863Z,12.25
2022-12-19T09:36:31.922Z,8.63
2022-12-19T09:38:59.580Z,9.45
2022-12-19T09:42:05.489Z,9.38
2022-12-19T09:45:09.119Z,10.77
2022-12-19T09:47:43.758Z,13.40
2022-12-19T09:50:35.934Z,8.93
2022-12-19T09:53:15.738Z,10.60
2022-12-19T09:55:46.536Z,10.30
2022-12-19T09:58:47.094Z,9.77
2022-12-19T10:01:29.612Z,10.20
2022-12-19T10:04:15.705Z,8.85
2022-12-19T10:07:21.261Z,12.73
2022-12-19T10:12:09.152Z,10.38
2022-12-19T10:13:25.313Z,8.63
2022-12-19T10:16:19.388Z,7.90
2022-12-19T10:18:57.227Z,10.13
2022-12-19T10:25:07.977Z,10.68
2022-12-19T10:28:48.054Z,10.43
2022-12-19T10:31:24.288Z,7.75
2022-12-19T10:34:21.765Z,10.38
2022-12-19T10:37:27.192Z,9.43
2022-12-19T10:40:27.907Z,8.80
2022-12-19T10:43:19.097Z,8.95
2022-12-19T10:46:02.595Z,11.02
2022-12-19T10:48:31.066Z,7.55
2022-12-19T10:51:00.601Z,10.20
2022-12-19T10:53:33.500Z,8.57
2022-12-19T10:56:12.516Z,9.43
2022-12-19T10:58:44.374Z,10.02
2022-12-19T11:01:22.947Z,11.65
2022-12-19T11:04:15.175Z,9.73
2022-12-19T11:06:50.330Z,12.07
2022-12-19T11:09:30.799Z,10.32
2022-12-19T11:16:01.059Z,10.57
2022-12-19T11:20:26.996Z,9.40
2022-12-19T11:25:14.006Z,10.88
2022-12-19T11:29:19.481Z,12.07
2022-12-19T11:30:38.645Z,9.48
2022-12-19T11:30:39.347Z,8.88
2022-12-19T11:32:44.162Z,10.15
2022-12-19T11:35:36.612Z,8.80
2022-12-19T11:38:06.759Z,9.45
2022-12-19T11:40:57.095Z,10.82
2022-12-19T11:43:44.364Z,10.05
2022-12-19T11:46:34.314Z,8.43
2022-12-19T11:49:44.231Z,11.70
2022-12-19T11:53:04.147Z,10.27
2022-12-19T11:56:16.506Z,8.70
2022-12-19T11:58:53.019Z,10.70
2022-12-19T12:01:35.740Z,9.60
2022-12-19T12:04:45.391Z,8.93
2022-12-19T12:07:38.023Z,9.30
2022-12-19T12:15:48.514Z,8.63
2022-12-19T12:24:41.668Z,7.20
2022-12-19T12:25:25.854Z,7.15
2022-12-19T12:31:39.937Z,10.38
2022-12-19T12:31:49.077Z,7.65
2022-12-19T12:31:53.297Z,7.05
2022-12-19T12:31:55.330Z,7.68
2022-12-19T12:35:38.322Z,7.88
2022-12-19T12:41:57.804Z,7.13
2022-12-19T12:44:33.189Z,7.88
2022-12-19T12:47:27.410Z,6.80
2022-12-19T12:50:07.165Z,6.50
2022-12-19T12:52:47.948Z,6.40
2022-12-19T12:55:34.562Z,8.18
2022-12-19T12:58:01.326Z,8.63
2022-12-19T13:00:36.422Z,8.02
2022-12-19T13:03:16.276Z,7.78
2022-12-19T13:05:49.263Z,10.20
2022-12-19T13:08:48.866Z,9.75
2022-12-19T13:11:38.368Z,7.93
2022-12-19T13:14:26.823Z,8.65
2022-12-19T13:16:54.838Z,8.18
2022-12-19T13:19:50.740Z,7.75
2022-12-19T13:22:41.874Z,6.25
2022-12-19T13:25:46.464Z,8.65
2022-12-19T13:28:33.562Z,5.95
2022-12-19T13:31:18.885Z,9.73
2022-12-19T13:33:51.900Z,8.35
2022-12-19T13:39:48.573Z,8.98
2022-12-19T13:40:07.401Z,9.80
2022-12-19T13:43:09.832Z,5.05
2022-12-19T13:45:47.750Z,6.78
2022-12-19T13:48:26.541Z,5.72
2022-12-19T13:50:55.533Z,8.23
2022-12-19T13:53:26.669Z,5.93
2022-12-19T13:56:21.296Z,7.03
2022-12-19T13:59:02.507Z,5.93
2022-12-19T14:01:34.447Z,8.07
2022-12-19T14:04:35.079Z,5.32
2022-12-19T14:07:23.858Z,5.18
2022-12-19T14:11:33.583Z,5.53
2022-12-19T14:13:43.060Z,6.68
2022-12-19T14:15:52.036Z,6.35
2022-12-19T14:18:44.546Z,6.63
2022-12-19T14:22:09.747Z,5.40
2022-12-19T14:24:19.461Z,5.30
2022-12-19T14:28:16.901Z,9.07
2022-12-19T14:30:31.006Z,5.82
2022-12-19T14:33:45.424Z,5.47
2022-12-19T14:36:10.695Z,7.38
2022-12-19T14:39:27.530Z,5.82
2022-12-19T14:41:47.628Z,7.63
2022-12-19T14:52:35.387Z,5.15
2022-12-19T14:54:04.858Z,6.07
2022-12-19T14:54:10.025Z,5.50
2022-12-19T14:54:27.814Z,7.20
2022-12-19T14:56:12.428Z,8.95
2022-12-19T14:58:56.240Z,6.43
2022-12-19T15:01:29.379Z,7.18
2022-12-19T15:04:52.764Z,6.75
2022-12-19T15:07:08.331Z,5.30
2022-12-19T15:11:06.968Z,5.57
2022-12-19T15:14:53.152Z,4.53
2022-12-19T15:16:27.009Z,6.07
2022-12-19T15:18:59.750Z,5.35
2022-12-19T15:21:29.484Z,4.72
2022-12-19T15:23:56.928Z,3.78
2022-12-19T15:26:43.015Z,5.90
2022-12-19T15:29:19.862Z,6.18
2022-12-19T15:31:49.314Z,5.70
2022-12-19T15:34:37.380Z,5.50
2022-12-19T15:37:15.327Z,7.97
2022-12-19T15:39:44.393Z,6.05
2022-12-19T15:42:24.869Z,5.72
2022-12-19T15:44:55.757Z,7.30
2022-12-19T15:47:43.718Z,4.80
2022-12-19T15:50:25.568Z,5.90
2022-12-19T15:52:57.111Z,6.38
2022-12-19T15:55:29.018Z,6.18
2022-12-19T15:58:01.315Z,6.70
2022-12-19T16:00:34.992Z,5.30
2022-12-19T16:05:49.115Z,7.15
2022-12-19T16:08:20.783Z,4.40
2022-12-19T16:11:01.459Z,5.70
2022-12-19T16:13:35.314Z,6.40
2022-12-19T16:16:07.974Z,6.70
2022-12-19T16:18:42.592Z,5.40
2022-12-19T16:21:20.158Z,5.25
2022-12-19T16:26:30.869Z,5.45
2022-12-19T16:28:58.185Z,6.55
2022-12-19T16:31:28.001Z,5.25
2022-12-19T16:33:55.524Z,4.15
2022-12-19T16:36:22.695Z,5.97
2022-12-19T16:38:49.555Z,7.95
2022-12-19T16:41:23.011Z,7.15
2022-12-19T16:43:51.339Z,4.78
2022-12-19T16:46:22.178Z,5.68
2022-12-19T16:48:50.095Z,7.30
2022-12-19T16:51:21.600Z,4.45
2022-12-19T16:53:54.394Z,5.18
2022-12-19T16:56:27.113Z,5.47
2022-12-19T16:58:55.600Z,8.98
2022-12-19T17:01:22.571Z,5.82
2022-12-19T17:03:49.461Z,7.55
2022-12-19T17:06:20.814Z,7.03
2022-12-19T17:08:49.162Z,6.40
2022-12-19T17:11:25.983Z,5.20
2022-12-19T17:14:08.313Z,4.60
2022-12-19T17:16:35.354Z,6.45
2022-12-19T17:19:02.429Z,4.75
2022-12-19T17:21:29.378Z,8.95
2022-12-19T17:23:56.326Z,7.32
2022-12-19T17:26:23.422Z,7.82
2022-12-19T17:28:51.717Z,6.45
2022-12-19T17:31:29.027Z,6.40
2022-12-19T17:33:58.208Z,6.45
2022-12-19T17:36:37.075Z,5.22
2022-12-19T17:39:33.440Z,5.22
2022-12-19T17:42:13.679Z,5.50
2022-12-19T17:44:40.456Z,6.07
2022-12-19T17:47:07.388Z,6.10
2022-12-19T17:49:34.387Z,6.07
2022-12-19T17:52:01.166Z,7.55
2022-12-19T17:54:27.959Z,6.55
2022-12-19T17:56:55.619Z,4.75
2022-12-19T17:59:22.390Z,8.93
2022-12-19T18:01:49.576Z,7.72
2022-12-19T18:04:21.648Z,5.65
2022-12-19T18:06:49.326Z,4.85
2022-12-19T18:09:22.868Z,5.00
2022-12-19T18:11:51.479Z,7.75
2022-12-19T18:14:19.615Z,5.93
2022-12-19T18:16:48.348Z,6.32
2022-12-19T18:19:21.437Z,7.97
2022-12-19T18:21:49.158Z,5.63
2022-12-19T18:24:16.744Z,5.72
2022-12-19T18:26:45.215Z,5.28
2022-12-19T18:29:13.185Z,5.60
2022-12-19T18:31:46.480Z,5.75
2022-12-19T18:34:22.981Z,7.53
2022-12-19T18:36:51.251Z,7.28
2022-12-19T18:39:23.258Z,4.10
2022-12-19T18:41:52.020Z,6.70
2022-12-19T18:44:19.830Z,6.03
2022-12-19T18:46:50.144Z,6.35
2022-12-19T18:49:17.981Z,7.65
2022-12-19T18:51:45.122Z,5.50
2022-12-19T18:54:18.285Z,6.40
2022-12-19T18:56:45.930Z,3.60
2022-12-19T18:59:13.208Z,7.90
2022-12-19T19:01:46.294Z,5.70
2022-12-19T19:04:17.917Z,5.65
2022-12-19T19:06:51.798Z,4.78
2022-12-19T19:09:21.574Z,7.05
2022-12-19T19:12:17.592Z,8.77
2022-12-19T19:14:44.506Z,6.97
2022-12-19T19:17:28.628Z,9.98
2022-12-19T19:19:55.453Z,7.10
2022-12-19T19:22:22.309Z,6.78
2022-12-19T19:24:49.087Z,4.28
2022-12-19T19:27:15.867Z,5.53
2022-12-19T19:29:42.616Z,8.32
2022-12-19T19:32:10.276Z,8.23
2022-12-19T19:34:40.715Z,7.05
2022-12-19T19:37:12.034Z,5.85
2022-12-19T19:39:38.861Z,4.75
2022-12-19T19:42:06.105Z,7.97
2022-12-19T19:44:32.950Z,7.70
2022-12-19T19:47:00.154Z,4.63
2022-12-19T19:49:27.143Z,5.43
2022-12-19T19:51:58.713Z,5.28
2022-12-19T19:54:29.409Z,7.22
2022-12-19T19:56:56.153Z,6.38
2022-12-19T19:59:22.993Z,5.75
2022-12-19T20:01:54.253Z,5.07
2022-12-19T20:04:21.393Z,5.50
2022-12-19T20:06:48.422Z,5.93
2022-12-19T20:09:15.174Z,10.02
2022-12-19T20:11:42.004Z,6.07
2022-12-19T20:14:09.266Z,6.70
2022-12-19T20:16:36.147Z,5.93
2022-12-19T20:19:03.205Z,6.65
2022-12-19T20:21:30.760Z,5.93
2022-12-19T20:23:57.717Z,8.07
2022-12-19T20:26:24.498Z,6.50
2022-12-19T20:28:51.697Z,4.68
2022-12-19T20:31:22.185Z,6.25
2022-12-19T20:33:50.510Z,6.53
2022-12-19T20:36:17.832Z,5.40
2022-12-19T20:38:44.765Z,5.30
2022-12-19T20:41:11.608Z,6.90
2022-12-19T20:43:39.156Z,6.20
2022-12-19T20:46:12.116Z,5.80
2022-12-19T20:48:39.752Z,5.10
2022-12-19T20:51:07.804Z,5.40
2022-12-19T20:53:37.500Z,6.65
2022-12-19T20:56:06.510Z,5.55
2022-12-19T20:58:37.300Z,4.43
2022-12-19T21:01:17.501Z,7.65
2022-12-19T21:03:44.996Z,4.55
2022-12-19T21:06:15.077Z,6.10
2022-12-19T21:08:42.951Z,8.35
2022-12-19T21:11:11.456Z,5.32
2022-12-19T21:13:39.579Z,7.20
2022-12-19T21:16:10.953Z,12.98
2022-12-19T21:18:40.106Z,8.35
2022-12-19T21:21:11.183Z,8.25
2022-12-19T21:23:38.039Z,4.65
2022-12-19T21:26:05.114Z,9.55
2022-12-19T21:28:33.281Z,8.23
2022-12-19T21:31:16.273Z,6.95
2022-12-19T21:33:44.499Z,6.40
2022-12-19T21:36:20.275Z,5.72
2022-12-19T21:38:50.422Z,4.30
2022-12-19T21:41:21.505Z,6.82
2022-12-19T21:43:53.470Z,4.65
2022-12-19T21:46:24.874Z,6.22
2022-12-19T21:48:54.881Z,6.53
2022-12-19T21:51:25.699Z,6.32
2022-12-19T21:54:00.331Z,6.45
2022-12-19T21:56:32.334Z,4.10
2022-12-19T21:59:05.800Z,6.63
2022-12-19T22:01:34.359Z,6.03
2022-12-19T22:04:08.728Z,5.25
2022-12-19T22:06:37.857Z,6.22
2022-12-19T22:09:08.161Z,5.85
2022-12-19T22:11:36.911Z,6.40
2022-12-19T22:14:05.325Z,6.10
2022-12-19T22:16:33.881Z,5.75
2022-12-19T22:19:01.675Z,6.07
2022-12-19T22:21:29.053Z,7.18
2022-12-19T22:24:03.452Z,4.82
2022-12-19T22:26:32.197Z,5.90
2022-12-19T22:28:59.361Z,5.90
2022-12-19T22:31:30.361Z,4.80
2022-12-19T22:34:10.330Z,5.32
2022-12-19T22:36:39.808Z,6.63
2022-12-19T22:39:11.894Z,3.97
2022-12-19T22:41:40.169Z,4.72
2022-12-19T22:44:14.511Z,8.00
2022-12-19T22:46:41.254Z,4.75
2022-12-19T22:49:08.948Z,7.63
2022-12-19T22:51:36.939Z,7.22
2022-12-19T22:54:05.076Z,5.60
2022-12-19T22:56:34.411Z,5.28
2022-12-19T22:59:05.360Z,5.63
2022-12-19T23:01:39.324Z,7.95
2022-12-19T23:04:09.344Z,6.45
2022-12-19T23:06:38.470Z,3.97
2022-12-19T23:09:07.901Z,7.80
2022-12-19T23:11:39.873Z,5.47
2022-12-19T23:14:09.501Z,5.03
2022-12-19T23:16:36.432Z,4.97
2022-12-19T23:19:05.338Z,5.05
2022-12-19T23:21:32.614Z,3.90
2022-12-19T23:23:59.537Z,3.97
2022-12-19T23:26:38.213Z,4.28
2022-12-19T23:29:09.033Z,4.13
2022-12-19T23:31:40.003Z,5.93
2022-12-19T23:34:06.875Z,4.88
2022-12-19T23:39:20.566Z,3.50
2022-12-19T23:41:47.299Z,5.07
2022-12-19T23:44:14.423Z,6.20
2022-12-19T23:46:41.547Z,5.38
2022-12-19T23:49:08.416Z,4.50
2022-12-19T23:51:35.205Z,3.15
2022-12-19T23:54:02.123Z,3.95
2022-12-19T23:56:32.256Z,4.10
2022-12-19T23:58:59.907Z,4.78
